createdAt,value
2018-02-12T00:01:26.170Z,97347.66
2018-02-12T00:03:53.692Z,97346.27
2018-02-12T00:06:21.224Z,97345.28
2018-02-12T00:08:48.730Z,97354.88
2018-02-12T00:11:16.238Z,97357.39
2018-02-12T00:13:43.743Z,97359.82
2018-02-12T00:16:11.273Z,97368.11
2018-02-12T00:18:38.880Z,97374.75
2018-02-12T00:21:06.398Z,97382.11
2018-02-12T00:23:33.917Z,97381.65
2018-02-12T00:26:01.418Z,97399.50
2018-02-12T00:28:28.950Z,97395.19
2018-02-12T00:30:56.460Z,97385.02
2018-02-12T00:33:23.985Z,97385.22
2018-02-12T00:35:51.512Z,97378.84
2018-02-12T00:38:19.043Z,97373.00
2018-02-12T00:40:46.558Z,97372.41
2018-02-12T00:43:14.097Z,97370.73
2018-02-12T00:45:41.609Z,97375.61
2018-02-12T00:48:09.104Z,97385.59
2018-02-12T00:50:36.613Z,97384.91
2018-02-12T00:53:04.130Z,97384.23
2018-02-12T00:55:31.654Z,97386.72
2018-02-12T00:57:59.170Z,97393.97
2018-02-12T01:00:26.708Z,97392.84
2018-02-12T01:02:54.239Z,97390.02
2018-02-12T01:05:21.759Z,97391.34
2018-02-12T01:07:49.307Z,97400.37
2018-02-12T01:10:16.821Z,97394.77
2018-02-12T01:12:44.334Z,97392.22
2018-02-12T01:15:11.868Z,97399.03
2018-02-12T01:17:39.363Z,97397.02
2018-02-12T01:20:06.863Z,97393.45
2018-02-12T01:22:34.383Z,97398.77
2018-02-12T01:25:01.890Z,97403.80
2018-02-12T01:27:29.468Z,97406.98
2018-02-12T01:29:56.986Z,97409.86
2018-02-12T01:32:24.513Z,97407.36
2018-02-12T01:34:51.997Z,97404.00
2018-02-12T01:37:19.558Z,97408.16
2018-02-12T01:39:47.074Z,97408.42
2018-02-12T01:42:14.592Z,97402.13
2018-02-12T01:44:42.399Z,97421.89
2018-02-12T01:47:09.938Z,97415.05
2018-02-12T01:49:37.465Z,97417.57
2018-02-12T01:52:04.983Z,97411.53
2018-02-12T01:54:32.514Z,97417.52
2018-02-12T01:57:00.054Z,97412.03
2018-02-12T01:59:27.581Z,97421.59
2018-02-12T02:01:55.118Z,97420.22
2018-02-12T02:04:22.630Z,97422.98
2018-02-12T02:06:50.136Z,97421.09
2018-02-12T02:09:17.658Z,97424.30
2018-02-12T02:11:45.176Z,97422.55
2018-02-12T02:14:12.684Z,97427.73
2018-02-12T02:16:40.298Z,97437.88
2018-02-12T02:19:07.793Z,97432.89
2018-02-12T02:21:35.314Z,97433.48
2018-02-12T02:24:02.828Z,97435.27
2018-02-12T02:26:30.339Z,97431.09
2018-02-12T02:28:57.864Z,97434.26
2018-02-12T02:31:25.393Z,97437.80
2018-02-12T02:33:52.908Z,97435.47
2018-02-12T02:36:20.413Z,97434.83
2018-02-12T02:38:47.945Z,97439.09
2018-02-12T02:41:15.459Z,97442.80
2018-02-12T02:43:42.976Z,97440.54
2018-02-12T02:46:10.480Z,97442.94
2018-02-12T02:48:38.005Z,97438.52
2018-02-12T02:51:05.518Z,97446.44
2018-02-12T02:53:33.068Z,97450.39
2018-02-12T02:56:00.572Z,97449.69
2018-02-12T02:58:28.073Z,97445.48
2018-02-12T03:00:55.588Z,97441.28
2018-02-12T03:03:23.095Z,97442.94
2018-02-12T03:05:51.244Z,97443.79
2018-02-12T03:08:18.744Z,97441.38
2018-02-12T03:10:46.272Z,97439.08
2018-02-12T03:13:13.794Z,97438.59
2018-02-12T03:15:41.313Z,97442.47
2018-02-12T03:18:08.840Z,97441.16
2018-02-12T03:20:36.357Z,97445.45
2018-02-12T03:23:03.865Z,97444.09
2018-02-12T03:25:31.374Z,97450.34
2018-02-12T03:27:58.877Z,97451.44
2018-02-12T03:30:26.393Z,97451.75
2018-02-12T03:32:53.902Z,97451.14
2018-02-12T03:35:21.417Z,97459.33
2018-02-12T03:37:48.928Z,97456.28
2018-02-12T03:40:16.448Z,97457.21
2018-02-12T03:42:43.958Z,97459.52
2018-02-12T03:45:11.484Z,97452.83
2018-02-12T03:47:39.000Z,97456.80
2018-02-12T03:50:06.579Z,97465.40
2018-02-12T03:52:34.095Z,97466.50
2018-02-12T03:55:01.602Z,97468.17
2018-02-12T03:57:29.114Z,97472.77
2018-02-12T03:59:56.621Z,97477.43
2018-02-12T04:02:24.153Z,97475.20
2018-02-12T04:04:51.707Z,97479.80
2018-02-12T04:07:19.236Z,97485.51
2018-02-12T04:09:46.744Z,97495.30
2018-02-12T04:12:14.301Z,97494.76
2018-02-12T04:14:41.820Z,97496.27
2018-02-12T04:17:09.373Z,97502.45
2018-02-12T04:19:36.909Z,97501.24
2018-02-12T04:22:04.428Z,97500.66
2018-02-12T04:24:31.937Z,97507.53
2018-02-12T04:26:59.443Z,97503.31
2018-02-12T04:29:26.964Z,97497.45
2018-02-12T04:31:54.463Z,97507.36
2018-02-12T04:34:21.978Z,97505.86
2018-02-12T04:36:49.493Z,97502.40
2018-02-12T04:39:16.994Z,97504.94
2018-02-12T04:41:44.523Z,97503.53
2018-02-12T04:44:12.030Z,97497.08
2018-02-12T04:46:39.593Z,97496.03
2018-02-12T04:49:07.128Z,97493.40
2018-02-12T04:51:34.642Z,97499.16
2018-02-12T04:54:02.145Z,97496.96
2018-02-12T04:56:29.649Z,97500.63
2018-02-12T04:58:57.154Z,97498.61
2018-02-12T05:01:24.721Z,97499.44
2018-02-12T05:03:52.254Z,97500.98
2018-02-12T05:06:19.764Z,97503.44
2018-02-12T05:08:47.284Z,97507.98
2018-02-12T05:11:14.798Z,97502.34
2018-02-12T05:13:42.302Z,97507.92
2018-02-12T05:16:09.834Z,97519.62
2018-02-12T05:18:37.364Z,97522.52
2018-02-12T05:21:04.874Z,97526.17
2018-02-12T05:23:32.392Z,97535.00
2018-02-12T05:25:59.904Z,97532.65
2018-02-12T05:28:27.412Z,97532.45
2018-02-12T05:30:54.915Z,97532.63
2018-02-12T05:33:22.419Z,97527.25
2018-02-12T05:35:49.938Z,97534.17
2018-02-12T05:38:17.448Z,97531.52
2018-02-12T05:40:44.948Z,97532.99
2018-02-12T05:43:12.469Z,97539.28
2018-02-12T05:45:39.981Z,97543.51
2018-02-12T05:48:07.510Z,97547.13
2018-02-12T05:50:35.033Z,97545.24
2018-02-12T05:53:02.548Z,97551.99
2018-02-12T05:55:30.073Z,97562.99
2018-02-12T05:57:57.603Z,97557.39
2018-02-12T06:00:25.155Z,97577.17
2018-02-12T06:02:52.674Z,97572.61
2018-02-12T06:05:20.192Z,97583.07
2018-02-12T06:07:47.719Z,97584.87
2018-02-12T06:10:15.218Z,97584.23
2018-02-12T06:12:42.753Z,97591.02
2018-02-12T06:15:10.262Z,97593.54
2018-02-12T06:17:37.794Z,97598.53
2018-02-12T06:20:05.304Z,97608.37
2018-02-12T06:22:32.874Z,97622.94
2018-02-12T06:25:00.399Z,97632.32
2018-02-12T06:27:27.919Z,97627.16
2018-02-12T06:29:55.449Z,97629.78
2018-02-12T06:32:22.964Z,97629.78
2018-02-12T06:34:50.493Z,97639.75
2018-02-12T06:37:18.013Z,97641.34
2018-02-12T06:39:45.538Z,97643.08
2018-02-12T06:42:13.058Z,97642.75
2018-02-12T06:44:40.570Z,97652.17
2018-02-12T06:47:08.097Z,97659.70
2018-02-12T06:49:35.608Z,97660.52
2018-02-12T06:52:03.154Z,97668.70
2018-02-12T06:54:30.709Z,97675.31
2018-02-12T06:56:58.268Z,97667.32
2018-02-12T06:59:25.774Z,97662.36
2018-02-12T07:01:53.271Z,97663.91
2018-02-12T07:04:20.763Z,97671.34
2018-02-12T07:06:48.288Z,97678.20
2018-02-12T07:09:15.794Z,97683.70
2018-02-12T07:11:43.315Z,97690.20
2018-02-12T07:14:10.848Z,97690.05
2018-02-12T07:16:38.369Z,97690.72
2018-02-12T07:19:05.879Z,97699.81
2018-02-12T07:21:33.394Z,97701.16
2018-02-12T07:24:00.961Z,97701.31
2018-02-12T07:26:28.475Z,97708.72
2018-02-12T07:28:55.989Z,97706.33
2018-02-12T07:31:23.505Z,97703.14
2018-02-12T07:33:51.019Z,97715.89
2018-02-12T07:36:18.540Z,97708.19
2018-02-12T07:38:46.073Z,97714.65
2018-02-12T07:41:13.600Z,97715.74
2018-02-12T07:43:41.130Z,97722.69
2018-02-12T07:46:08.663Z,97730.16
2018-02-12T07:48:36.180Z,97730.86
2018-02-12T07:51:03.699Z,97731.02
2018-02-12T07:53:31.238Z,97740.59
2018-02-12T07:55:58.754Z,97740.58
2018-02-12T07:58:26.278Z,97742.97
2018-02-12T08:00:53.805Z,97750.48
2018-02-12T08:03:21.314Z,97765.53
2018-02-12T08:05:48.816Z,97760.33
2018-02-12T08:08:16.350Z,97761.34
2018-02-12T08:10:43.900Z,97772.84
2018-02-12T08:13:11.423Z,97775.56
2018-02-12T08:15:38.934Z,97773.30
2018-02-12T08:18:06.654Z,97777.89
2018-02-12T08:20:34.183Z,97784.09
2018-02-12T08:23:01.821Z,97790.37
2018-02-12T08:25:29.354Z,97783.25
2018-02-12T08:27:56.940Z,97787.19
2018-02-12T08:30:25.180Z,97795.29
2018-02-12T08:32:52.695Z,97795.45
2018-02-12T08:35:20.214Z,97798.84
2018-02-12T08:37:47.815Z,97805.59
2018-02-12T08:40:15.350Z,97800.73
2018-02-12T08:42:42.889Z,97806.23
2018-02-12T08:45:10.400Z,97812.20
2018-02-12T08:47:37.916Z,97813.25
2018-02-12T08:50:05.434Z,97822.64
2018-02-12T08:52:32.961Z,97818.03
2018-02-12T08:55:00.488Z,97829.47
2018-02-12T08:57:28.005Z,97832.56
2018-02-12T08:59:55.509Z,97837.94
2018-02-12T09:02:23.018Z,97840.45
2018-02-12T09:04:50.636Z,97839.53
2018-02-12T09:07:18.164Z,97844.67
2018-02-12T09:09:45.744Z,97837.84
2018-02-12T09:12:13.269Z,97839.23
2018-02-12T09:14:40.794Z,97847.94
2018-02-12T09:17:08.539Z,97847.79
2018-02-12T09:19:36.050Z,97849.40
2018-02-12T09:22:03.594Z,97858.07
2018-02-12T09:24:31.125Z,97850.73
2018-02-12T09:26:58.638Z,97850.94
2018-02-12T09:29:26.174Z,97856.52
2018-02-12T09:31:53.723Z,97854.04
2018-02-12T09:34:21.240Z,97859.66
2018-02-12T09:36:48.745Z,97864.41
2018-02-12T09:39:16.258Z,97873.77
2018-02-12T09:41:43.811Z,97871.25
2018-02-12T09:44:11.383Z,97874.36
2018-02-12T09:46:38.899Z,97870.32
2018-02-12T09:49:06.418Z,97879.69
2018-02-12T09:51:33.943Z,97876.02
2018-02-12T09:54:01.463Z,97878.41
2018-02-12T09:56:28.989Z,97880.71
2018-02-12T09:58:56.520Z,97882.34
2018-02-12T10:01:24.039Z,97877.82
2018-02-12T10:03:51.658Z,97881.38
2018-02-12T10:06:19.184Z,97888.70
2018-02-12T10:08:46.703Z,97895.72
2018-02-12T10:11:14.222Z,97892.67
2018-02-12T10:13:41.864Z,97905.95
2018-02-12T10:16:09.380Z,97907.99
2018-02-12T10:18:36.893Z,97909.89
2018-02-12T10:21:04.450Z,97906.94
2018-02-12T10:23:31.971Z,97917.16
2018-02-12T10:25:59.491Z,97913.83
2018-02-12T10:28:27.016Z,97919.48
2018-02-12T10:30:54.553Z,97922.24
2018-02-12T10:33:22.096Z,97923.34
2018-02-12T10:35:49.609Z,97926.16
2018-02-12T10:38:17.123Z,97929.97
2018-02-12T10:40:44.678Z,97932.46
2018-02-12T10:43:12.231Z,97938.75
2018-02-12T10:45:39.769Z,97935.42
2018-02-12T10:48:07.285Z,97927.14
2018-02-12T10:50:34.803Z,97938.13
2018-02-12T10:53:02.339Z,97932.78
2018-02-12T10:55:29.873Z,97926.31
2018-02-12T10:57:57.379Z,97932.39
2018-02-12T11:00:24.880Z,97938.16
2018-02-12T11:02:52.394Z,97929.09
2018-02-12T11:05:19.949Z,97936.94
2018-02-12T11:07:47.444Z,97931.20
2018-02-12T11:10:14.945Z,97929.11
2018-02-12T11:12:42.463Z,97924.59
2018-02-12T11:15:10.010Z,97930.00
2018-02-12T11:17:37.559Z,97923.94
2018-02-12T11:20:05.089Z,97920.53
2018-02-12T11:22:32.628Z,97919.66
2018-02-12T11:25:00.159Z,97932.25
2018-02-12T11:27:27.696Z,97923.33
2018-02-12T11:29:55.218Z,97930.94
2018-02-12T11:32:22.740Z,97927.73
2018-02-12T11:34:50.264Z,97936.03
2018-02-12T11:37:17.795Z,97933.83
2018-02-12T11:39:45.333Z,97930.66
2018-02-12T11:42:12.871Z,97926.83
2018-02-12T11:44:40.404Z,97926.20
2018-02-12T11:47:07.903Z,97927.91
2018-02-12T11:49:35.437Z,97927.37
2018-02-12T11:52:02.941Z,97931.38
2018-02-12T11:54:30.453Z,97932.90
2018-02-12T11:56:57.963Z,97934.98
2018-02-12T11:59:25.474Z,97929.80
2018-02-12T12:01:53.008Z,97926.69
2018-02-12T12:04:20.631Z,97929.17
2018-02-12T12:06:48.139Z,97928.37
2018-02-12T12:09:15.679Z,97932.55
2018-02-12T12:11:43.243Z,97930.05
2018-02-12T12:14:10.769Z,97927.45
2018-02-12T12:16:38.303Z,97926.02
2018-02-12T12:19:05.814Z,97939.73
2018-02-12T12:21:33.560Z,97928.44
2018-02-12T12:24:01.084Z,97934.06
2018-02-12T12:26:28.700Z,97917.64
2018-02-12T12:28:56.218Z,97928.70
2018-02-12T12:31:23.720Z,97922.13
2018-02-12T12:33:51.252Z,97919.20
2018-02-12T12:36:18.778Z,97927.60
2018-02-12T12:38:46.409Z,97913.66
2018-02-12T12:41:13.908Z,97923.88
2018-02-12T12:43:41.444Z,97925.24
2018-02-12T12:46:08.985Z,97933.41
2018-02-12T12:48:36.560Z,97917.70
2018-02-12T12:51:04.080Z,97925.77
2018-02-12T12:53:31.599Z,97927.20
2018-02-12T12:55:59.134Z,97940.13
2018-02-12T12:58:26.656Z,97937.41
2018-02-12T13:00:54.186Z,97940.38
2018-02-12T13:03:21.700Z,97947.39
2018-02-12T13:05:49.201Z,97946.51
2018-02-12T13:08:16.695Z,97944.88
2018-02-12T13:10:44.223Z,97943.91
2018-02-12T13:13:11.751Z,97941.34
2018-02-12T13:15:39.316Z,97950.64
2018-02-12T13:18:06.826Z,97951.42
2018-02-12T13:20:34.344Z,97940.94
2018-02-12T13:23:01.854Z,97944.88
2018-02-12T13:25:29.405Z,97941.60
2018-02-12T13:27:56.946Z,97931.62
2018-02-12T13:30:24.529Z,97930.45
2018-02-12T13:32:52.143Z,97930.29
2018-02-12T13:35:19.689Z,97936.97
2018-02-12T13:37:47.243Z,97934.95
2018-02-12T13:40:14.761Z,97938.73
2018-02-12T13:42:42.281Z,97935.84
2018-02-12T13:45:10.659Z,97934.39
2018-02-12T13:47:38.156Z,97937.52
2018-02-12T13:50:05.895Z,97939.59
2018-02-12T13:52:33.576Z,97943.39
2018-02-12T13:55:01.205Z,97943.52
2018-02-12T13:57:28.710Z,97946.73
2018-02-12T13:59:56.231Z,97950.31
2018-02-12T14:02:23.744Z,97952.17
2018-02-12T14:04:51.342Z,97949.27
2018-02-12T14:07:18.905Z,97955.09
2018-02-12T14:09:46.427Z,97962.28
2018-02-12T14:12:13.980Z,97962.55
2018-02-12T14:14:41.533Z,97979.09
2018-02-12T14:17:09.181Z,97985.67
2018-02-12T14:19:36.731Z,97994.63
2018-02-12T14:22:04.293Z,97991.62
2018-02-12T14:24:31.884Z,97988.83
2018-02-12T14:26:59.391Z,97988.76
2018-02-12T14:29:26.913Z,97989.37
2018-02-12T14:31:54.441Z,97989.02
2018-02-12T14:34:21.989Z,97988.84
2018-02-12T14:36:49.506Z,97991.52
2018-02-12T14:39:17.021Z,97990.30
2018-02-12T14:41:44.529Z,97994.61
2018-02-12T14:44:12.030Z,97997.41
2018-02-12T14:46:39.530Z,97999.13
2018-02-12T14:49:07.065Z,97995.87
2018-02-12T14:51:34.824Z,97993.78
2018-02-12T14:54:02.371Z,97997.03
2018-02-12T14:56:29.901Z,97996.86
2018-02-12T14:58:57.435Z,97998.05
2018-02-12T15:01:24.988Z,97998.52
2018-02-12T15:03:52.508Z,97997.55
2018-02-12T15:06:20.156Z,98002.38
2018-02-12T15:08:47.716Z,97999.03
2018-02-12T15:11:15.249Z,97998.75
2018-02-12T15:13:42.818Z,97993.43
2018-02-12T15:16:10.359Z,98001.19
2018-02-12T15:18:37.873Z,98000.45
2018-02-12T15:21:05.419Z,97997.59
2018-02-12T15:23:32.986Z,98000.68
2018-02-12T15:26:00.551Z,98001.84
2018-02-12T15:28:28.461Z,98002.00
2018-02-12T15:30:56.040Z,98003.65
2018-02-12T15:33:23.582Z,98006.70
2018-02-12T15:35:51.717Z,98011.19
2018-02-12T15:38:19.311Z,98011.52
2018-02-12T15:40:46.862Z,98016.00
2018-02-12T15:43:14.379Z,98020.43
2018-02-12T15:45:41.911Z,98028.03
2018-02-12T15:48:09.473Z,98036.55
2018-02-12T15:50:37.013Z,98031.45
2018-02-12T15:53:04.555Z,98045.09
2018-02-12T15:55:32.178Z,98042.45
2018-02-12T15:57:59.700Z,98040.70
2018-02-12T16:00:27.216Z,98042.22
2018-02-12T16:02:54.732Z,98043.55
2018-02-12T16:05:22.271Z,98050.84
2018-02-12T16:07:49.812Z,98043.42
2018-02-12T16:10:17.308Z,98047.06
2018-02-12T16:12:44.949Z,98052.98
2018-02-12T16:15:12.819Z,98056.45
2018-02-12T16:17:40.384Z,98058.67
2018-02-12T16:20:07.925Z,98059.19
2018-02-12T16:22:35.556Z,98062.67
2018-02-12T16:25:03.082Z,98061.59
2018-02-12T16:27:30.658Z,98061.86
2018-02-12T16:29:58.179Z,98065.16
2018-02-12T16:32:25.699Z,98065.38
2018-02-12T16:34:53.226Z,98070.23
2018-02-12T16:37:20.729Z,98075.92
2018-02-12T16:39:48.292Z,98069.01
2018-02-12T16:42:15.813Z,98081.98
2018-02-12T16:44:43.344Z,98088.09
2018-02-12T16:47:10.889Z,98091.70
2018-02-12T16:49:38.449Z,98100.22
2018-02-12T16:52:06.045Z,98100.17
2018-02-12T16:54:33.575Z,98106.06
2018-02-12T16:57:01.128Z,98101.64
2018-02-12T16:59:28.640Z,98108.30
2018-02-12T17:01:56.175Z,98116.34
2018-02-12T17:04:23.705Z,98115.88
2018-02-12T17:06:51.209Z,98123.01
2018-02-12T17:09:18.823Z,98125.67
2018-02-12T17:11:46.337Z,98124.19
2018-02-12T17:14:13.883Z,98128.69
2018-02-12T17:16:41.410Z,98125.71
2018-02-12T17:19:08.938Z,98125.73
2018-02-12T17:21:36.479Z,98128.42
2018-02-12T17:24:04.045Z,98131.52
2018-02-12T17:26:31.578Z,98134.27
2018-02-12T17:28:59.179Z,98131.30
2018-02-12T17:31:26.719Z,98134.69
2018-02-12T17:33:54.249Z,98132.10
2018-02-12T17:36:21.789Z,98142.13
2018-02-12T17:38:49.346Z,98138.45
2018-02-12T17:41:16.897Z,98145.67
2018-02-12T17:43:44.481Z,98141.37
2018-02-12T17:46:12.130Z,98147.67
2018-02-12T17:48:39.658Z,98147.45
2018-02-12T17:51:07.206Z,98153.69
2018-02-12T17:53:34.711Z,98157.98
2018-02-12T17:56:02.249Z,98155.07
2018-02-12T17:58:29.805Z,98157.57
2018-02-12T18:00:57.333Z,98154.13
2018-02-12T18:03:24.849Z,98162.59
2018-02-12T18:05:52.428Z,98156.65
2018-02-12T18:08:19.952Z,98162.47
2018-02-12T18:10:47.491Z,98167.94
2018-02-12T18:13:15.028Z,98164.87
2018-02-12T18:15:42.578Z,98171.65
2018-02-12T18:18:10.136Z,98170.64
2018-02-12T18:20:37.730Z,98174.36
2018-02-12T18:23:05.809Z,98171.34
2018-02-12T18:25:33.518Z,98175.78
2018-02-12T18:28:01.046Z,98177.19
2018-02-12T18:30:28.560Z,98176.24
2018-02-12T18:32:56.234Z,98187.56
2018-02-12T18:35:23.796Z,98183.62
2018-02-12T18:37:51.864Z,98187.77
2018-02-12T18:40:19.704Z,98185.34
2018-02-12T18:42:47.234Z,98187.67
2018-02-12T18:45:14.888Z,98188.77
2018-02-12T18:47:42.928Z,98183.02
2018-02-12T18:50:11.120Z,98188.17
2018-02-12T18:52:38.863Z,98186.52
2018-02-12T18:55:06.694Z,98192.52
2018-02-12T18:57:35.473Z,98190.52
2018-02-12T19:00:03.095Z,98187.67
2018-02-12T19:02:30.897Z,98194.06
2018-02-12T19:04:58.633Z,98190.03
2018-02-12T19:07:26.310Z,98196.80
2018-02-12T19:09:53.870Z,98194.75
2018-02-12T19:12:21.978Z,98198.64
2018-02-12T19:14:49.800Z,98207.83
2018-02-12T19:17:17.478Z,98203.70
2018-02-12T19:19:45.440Z,98201.38
2018-02-12T19:22:13.573Z,98201.59
2018-02-12T19:24:41.350Z,98202.11
2018-02-12T19:27:08.976Z,98194.40
2018-02-12T19:29:37.116Z,98198.55
2018-02-12T19:32:05.438Z,98206.41
2018-02-12T19:34:33.329Z,98205.11
2018-02-12T19:37:01.145Z,98213.12
2018-02-12T19:39:28.772Z,98206.78
2018-02-12T19:41:57.016Z,98207.68
2018-02-12T19:44:24.804Z,98214.06
2018-02-12T19:46:52.573Z,98214.66
2018-02-12T19:49:20.140Z,98214.24
2018-02-12T19:51:47.665Z,98216.97
2018-02-12T19:54:15.266Z,98223.91
2018-02-12T19:56:42.801Z,98226.16
2018-02-12T19:59:10.371Z,98233.50
2018-02-12T20:01:37.964Z,98224.42
2018-02-12T20:04:05.511Z,98226.87
2018-02-12T20:06:33.058Z,98227.41
2018-02-12T20:09:00.744Z,98226.72
2018-02-12T20:11:28.617Z,98237.02
2018-02-12T20:13:56.160Z,98239.00
2018-02-12T20:16:23.689Z,98236.62
2018-02-12T20:18:51.206Z,98242.17
2018-02-12T20:21:18.739Z,98241.30
2018-02-12T20:23:46.391Z,98243.64
2018-02-12T20:26:14.044Z,98244.99
2018-02-12T20:28:41.594Z,98251.66
2018-02-12T20:31:09.160Z,98249.13
2018-02-12T20:33:36.712Z,98248.05
2018-02-12T20:36:04.351Z,98243.41
2018-02-12T20:38:31.981Z,98254.94
2018-02-12T20:40:59.520Z,98246.45
2018-02-12T20:43:27.075Z,98250.36
2018-02-12T20:45:54.665Z,98251.68
2018-02-12T20:48:22.334Z,98255.51
2018-02-12T20:50:49.862Z,98255.41
2018-02-12T20:53:17.570Z,98256.20
2018-02-12T20:55:45.100Z,98249.60
2018-02-12T20:58:12.711Z,98256.37
2018-02-12T21:00:40.275Z,98255.79
2018-02-12T21:03:07.812Z,98261.46
2018-02-12T21:05:35.376Z,98262.17
2018-02-12T21:08:02.920Z,98263.63
2018-02-12T21:10:30.600Z,98268.03
2018-02-12T21:12:58.163Z,98266.70
2018-02-12T21:15:25.803Z,98271.19
2018-02-12T21:17:53.563Z,98268.23
2018-02-12T21:20:21.189Z,98267.16
2018-02-12T21:22:48.714Z,98264.70
2018-02-12T21:25:16.250Z,98272.90
2018-02-12T21:27:43.837Z,98274.97
2018-02-12T21:30:11.441Z,98270.08
2018-02-12T21:32:39.057Z,98271.48
2018-02-12T21:35:06.733Z,98276.21
2018-02-12T21:37:34.320Z,98271.95
2018-02-12T21:40:01.850Z,98274.89
2018-02-12T21:42:29.406Z,98270.05
2018-02-12T21:44:56.931Z,98269.86
2018-02-12T21:47:24.467Z,98273.92
2018-02-12T21:49:52.060Z,98274.97
2018-02-12T21:52:19.613Z,98271.50
2018-02-12T21:54:47.160Z,98277.03
2018-02-12T21:57:14.672Z,98269.46
2018-02-12T21:59:42.203Z,98269.13
2018-02-12T22:02:09.818Z,98273.78
2018-02-12T22:04:37.339Z,98268.23
2018-02-12T22:07:04.920Z,98275.64
2018-02-12T22:09:32.426Z,98269.48
2018-02-12T22:11:59.978Z,98263.48
2018-02-12T22:14:27.489Z,98265.12
2018-02-12T22:16:55.005Z,98270.91
2018-02-12T22:19:22.505Z,98269.56
2018-02-12T22:21:50.031Z,98272.05
2018-02-12T22:24:17.549Z,98277.23
2018-02-12T22:26:45.100Z,98279.59
2018-02-12T22:29:12.629Z,98272.11
2018-02-12T22:31:40.284Z,98274.81
2018-02-12T22:34:07.811Z,98269.23
2018-02-12T22:36:35.461Z,98267.30
2018-02-12T22:39:02.997Z,98270.95
2018-02-12T22:41:30.519Z,98270.56
2018-02-12T22:43:58.076Z,98264.28
2018-02-12T22:46:25.759Z,98265.70
2018-02-12T22:48:53.291Z,98262.56
2018-02-12T22:51:20.829Z,98263.47
2018-02-12T22:53:48.374Z,98264.79
2018-02-12T22:56:15.899Z,98265.83
2018-02-12T22:58:43.436Z,98265.41
2018-02-12T23:01:10.964Z,98260.83
2018-02-12T23:03:38.494Z,98268.17
2018-02-12T23:06:06.011Z,98266.73
2018-02-12T23:08:33.566Z,98265.71
2018-02-12T23:11:01.082Z,98272.95
2018-02-12T23:13:28.639Z,98266.23
2018-02-12T23:15:56.186Z,98270.38
2018-02-12T23:18:23.784Z,98265.02
2018-02-12T23:20:51.691Z,98272.26
2018-02-12T23:23:19.266Z,98267.55
2018-02-12T23:25:46.777Z,98263.75
2018-02-12T23:28:14.323Z,98262.66
2018-02-12T23:30:41.852Z,98264.91
2018-02-12T23:33:09.434Z,98263.58
2018-02-12T23:35:36.955Z,98268.56
2018-02-12T23:38:04.507Z,98274.69
2018-02-12T23:40:32.029Z,98272.14
2018-02-12T23:42:59.700Z,98265.83
2018-02-12T23:45:27.226Z,98265.66
2018-02-12T23:47:54.744Z,98269.08
2018-02-12T23:50:22.261Z,98261.01
2018-02-12T23:52:49.789Z,98257.90
2018-02-12T23:55:17.319Z,98257.55
2018-02-12T23:57:44.828Z,98258.88
